createdAt,value
2017-02-02T00:00:24.723Z,87.4
2017-02-02T00:10:36.138Z,88.4
2017-02-02T00:20:47.517Z,88.5
2017-02-02T00:30:58.897Z,90
2017-02-02T00:41:10.256Z,90.7
2017-02-02T00:51:21.590Z,91.7
2017-02-02T01:01:32.948Z,92.8
2017-02-02T01:11:44.331Z,93.8
2017-02-02T01:21:55.781Z,94.6
2017-02-02T01:32:07.049Z,95.1
2017-02-02T01:42:18.375Z,95.8
2017-02-02T01:52:29.722Z,95.9
2017-02-02T02:02:41.065Z,95.6
2017-02-02T02:12:52.370Z,96.2
2017-02-02T02:23:03.705Z,96.8
2017-02-02T02:33:15.022Z,95.6
2017-02-02T02:43:26.370Z,96.2
2017-02-02T02:53:37.777Z,95.5
2017-02-02T03:03:49.168Z,96.3
2017-02-02T03:14:00.519Z,97
2017-02-02T03:24:11.813Z,96.6
2017-02-02T03:34:23.141Z,96.5
2017-02-02T03:44:34.454Z,96.9
2017-02-02T03:54:45.753Z,95.9
2017-02-02T04:04:57.034Z,96.5
2017-02-02T04:15:08.413Z,96.5
2017-02-02T04:25:19.736Z,96.3
2017-02-02T04:35:31.070Z,95.9
2017-02-02T04:45:42.400Z,95.9
2017-02-02T04:55:53.713Z,95.9
2017-02-02T05:06:05.029Z,95.9
2017-02-02T05:16:16.361Z,95.5
2017-02-02T05:26:27.647Z,95.7
2017-02-02T05:36:38.975Z,95.5
2017-02-02T05:46:50.312Z,96.3
2017-02-02T05:57:01.674Z,96.7
2017-02-02T06:07:13.044Z,97.7
2017-02-02T06:17:24.471Z,96.9
2017-02-02T06:27:35.950Z,96.9
2017-02-02T06:37:47.432Z,97.6
2017-02-02T06:47:58.955Z,97.4
2017-02-02T06:58:10.443Z,97.4
2017-02-02T07:08:21.937Z,97.6
2017-02-02T07:18:33.391Z,96.8
2017-02-02T07:28:44.696Z,97.1
2017-02-02T07:38:56.036Z,96.6
2017-02-02T07:49:07.227Z,96
2017-02-02T07:59:18.287Z,95.8
2017-02-02T08:09:29.269Z,95.8
2017-02-02T08:19:40.304Z,95.8
2017-02-02T08:29:51.248Z,93.7
2017-02-02T08:40:01.998Z,94.7
2017-02-02T08:50:12.875Z,95
2017-02-02T09:00:23.613Z,92
2017-02-02T09:10:34.064Z,91.1
2017-02-02T09:20:44.241Z,89.8
2017-02-02T09:30:54.275Z,89.2
2017-02-02T09:41:04.188Z,88.3
2017-02-02T09:51:13.978Z,87
2017-02-02T10:01:23.750Z,87.7
2017-02-02T10:11:33.496Z,87.4
2017-02-02T10:21:43.318Z,84.9
2017-02-02T10:31:53.032Z,83.5
2017-02-02T10:42:02.616Z,83.1
2017-02-02T10:52:12.140Z,81.7
2017-02-02T11:02:21.619Z,82
2017-02-02T11:12:31.165Z,81.9
2017-02-02T11:22:40.849Z,82.5
2017-02-02T11:32:50.635Z,81.5
2017-02-02T11:43:00.243Z,79
2017-02-02T11:53:09.612Z,78
2017-02-02T12:03:18.884Z,78.5
2017-02-02T12:13:28.241Z,77.6
2017-02-02T12:23:37.518Z,77
2017-02-02T12:33:46.771Z,75.4
2017-02-02T12:43:55.940Z,74.8
2017-02-02T12:54:05.035Z,74.4
2017-02-02T13:04:14.071Z,74.6
2017-02-02T13:14:23.063Z,73.7
2017-02-02T13:24:31.973Z,73.1
2017-02-02T13:34:40.778Z,73.3
2017-02-02T13:44:49.646Z,73.9
2017-02-02T13:54:58.628Z,74.4
2017-02-02T14:05:07.954Z,74.7
2017-02-02T14:15:17.469Z,75.1
2017-02-02T14:25:27.144Z,74.8
2017-02-02T14:35:36.918Z,75
2017-02-02T14:45:46.804Z,75.1
2017-02-02T14:55:56.717Z,75.5
2017-02-02T15:06:06.725Z,75.5
2017-02-02T15:16:16.731Z,75.6
2017-02-02T15:26:26.825Z,75.6
2017-02-02T15:36:36.963Z,75.9
2017-02-02T15:46:47.174Z,76.5
2017-02-02T15:56:57.427Z,77.4
2017-02-02T16:07:07.631Z,77.8
2017-02-02T16:17:17.848Z,78
2017-02-02T16:27:28.125Z,79.9
2017-02-02T16:37:38.477Z,81.6
2017-02-02T16:47:48.890Z,82.2
2017-02-02T16:57:59.358Z,83.1
2017-02-02T17:08:09.893Z,84.1
2017-02-02T17:18:20.448Z,84.7
2017-02-02T17:28:31.090Z,85.2
2017-02-02T17:38:41.772Z,86.3
2017-02-02T17:48:52.531Z,86.1
2017-02-02T17:59:03.215Z,85.2
2017-02-02T18:09:13.991Z,84.4
2017-02-02T18:19:24.711Z,84.7
2017-02-02T18:29:35.462Z,84.3
2017-02-02T18:39:46.243Z,84.4
2017-02-02T18:49:57.055Z,84.8
2017-02-02T19:00:07.857Z,85.4
2017-02-02T19:10:18.710Z,85.8
2017-02-02T19:20:29.505Z,86.2
2017-02-02T19:30:40.329Z,87
2017-02-02T19:40:51.168Z,87
2017-02-02T19:51:02.099Z,87
2017-02-02T20:01:13.022Z,86.8
2017-02-02T20:11:23.901Z,87.3
2017-02-02T20:21:34.833Z,88.3
2017-02-02T20:31:45.859Z,89
2017-02-02T20:41:56.946Z,89.2
2017-02-02T20:52:07.975Z,89.3
2017-02-02T21:02:19.103Z,90.1
2017-02-02T21:12:30.198Z,90.8
2017-02-02T21:22:41.354Z,91.4
2017-02-02T21:32:52.508Z,91.2
2017-02-02T21:43:03.694Z,90.9
2017-02-02T21:53:14.892Z,91.4
2017-02-02T22:03:26.161Z,90.8
2017-02-02T22:13:37.422Z,91
2017-02-02T22:23:48.677Z,91.6
2017-02-02T22:33:59.892Z,91.9
2017-02-02T22:44:11.168Z,91.8
2017-02-02T22:54:22.459Z,91.9
2017-02-02T23:04:33.747Z,91.9
2017-02-02T23:14:45.020Z,91.7
2017-02-02T23:24:56.243Z,91.5
2017-02-02T23:35:07.488Z,91.5
2017-02-02T23:45:18.720Z,90.7
2017-02-02T23:55:29.973Z,91.1
